Time;durP1;ratioP1;P1;durP2;ratioP2;P2;SDS_P1;SDS_P2;PMS_P1;PMS_P2;Temp;Humidity;BMP_temperature;BMP_pressure;BME280_temperature;BME280_humidity;BME280_pressure;Samples;Min_cycle;Max_cycle;Signal;HPM_P1;HPM_P2
2022/04/13 00:01:25;;;;;;;;;15.80;15.80;;;;;;;;5245717;28;8827;-67
2022/04/13 00:03:57;;;;;;;;;12.80;12.80;;;;;;;;5245658;28;8807;-67
2022/04/13 00:06:28;;;;;;;;;19.60;19.20;;;;;;;;5229543;28;8821;-65
2022/04/13 00:09:00;;;;;;;;;18.60;18.60;;;;;;;;5245905;28;8771;-65
2022/04/13 00:11:32;;;;;;;;;18.20;18.20;;;;;;;;5212887;28;8817;-65
2022/04/13 00:14:05;;;;;;;;;59.00;50.20;;;;;;;;5229370;28;8819;-65
2022/04/13 00:16:36;;;;;;;;;75.60;63.00;;;;;;;;5229092;28;8791;-67
2022/04/13 00:19:08;;;;;;;;;67.40;55.20;;;;;;;;5224363;28;8829;-67
2022/04/13 00:21:41;;;;;;;;;87.20;67.00;;;;;;;;5224725;28;8862;-67
2022/04/13 00:24:13;;;;;;;;;68.60;57.00;;;;;;;;5238420;28;8803;-67
2022/04/13 00:26:44;;;;;;;;;72.60;59.60;;;;;;;;5245253;28;8787;-67
2022/04/13 00:29:16;;;;;;;;;67.60;55.40;;;;;;;;5229027;28;8782;-67
2022/04/13 00:31:51;;;;;;;;;61.40;51.60;;;;;;;;5228904;28;8929;-68
2022/04/13 00:34:23;;;;;;;;;67.00;56.20;;;;;;;;5229531;28;8783;-68
2022/04/13 00:36:57;;;;;;;;;68.60;57.00;;;;;;;;5228792;28;8860;-66
2022/04/13 00:39:30;;;;;;;;;65.40;55.20;;;;;;;;5228066;28;8850;-67
2022/04/13 00:42:03;;;;;;;;;63.00;51.20;;;;;;;;5228150;28;8953;-67
2022/04/13 00:44:35;;;;;;;;;95.33;84.33;;;;;;;;5245020;28;8823;-69
2022/04/13 00:47:08;;;;;;;;;95.25;79.50;;;;;;;;5229877;28;8801;-67
2022/04/13 00:49:40;;;;;;;;;82.20;67.20;;;;;;;;5228939;28;8775;-68
2022/04/13 00:52:13;;;;;;;;;66.80;54.80;;;;;;;;5212112;28;8775;-65
2022/04/13 00:54:47;;;;;;;;;236.25;179.50;;;;;;;;5245656;28;8937;-65
2022/04/13 00:57:20;;;;;;;;;151.25;130.75;;;;;;;;5245074;28;11513;-66
2022/04/13 00:59:53;;;;;;;;;74.20;57.80;;;;;;;;5244889;28;10349;-64
2022/04/13 01:02:27;;;;;;;;;56.20;49.00;;;;;;;;5241138;28;8940;-68
2022/04/13 01:05:04;;;;;;;;;60.00;50.60;;;;;;;;5229711;28;8802;-67
2022/04/13 01:07:36;;;;;;;;;65.80;52.40;;;;;;;;5231405;28;8798;-67
2022/04/13 01:10:07;;;;;;;;;63.20;53.20;;;;;;;;5231154;28;8816;-66
2022/04/13 01:12:40;;;;;;;;;46.20;40.00;;;;;;;;5248157;28;8785;-66
2022/04/13 01:15:12;;;;;;;;;26.40;25.40;;;;;;;;5231031;28;8908;-67
2022/04/13 01:17:46;;;;;;;;;30.40;28.40;;;;;;;;5233458;28;8880;-67
2022/04/13 01:20:22;;;;;;;;;24.80;24.80;;;;;;;;5235018;28;8842;-69
2022/04/13 01:22:53;;;;;;;;;19.60;19.60;;;;;;;;5252243;28;8784;-67
2022/04/13 01:25:25;;;;;;;;;27.80;24.00;;;;;;;;5235570;28;8790;-67
2022/04/13 01:28:16;;;;;;;;;24.40;21.00;;;;;;;;5237659;28;8819;-67
2022/04/13 01:30:47;;;;;;;;;25.20;22.60;;;;;;;;5251558;28;8779;-67
2022/04/13 01:33:39;;;;;;;;;17.40;17.40;;;;;;;;5251116;28;8861;-67
2022/04/13 01:36:11;;;;;;;;;17.60;17.60;;;;;;;;5251977;28;8775;-67
2022/04/13 01:38:42;;;;;;;;;20.80;20.80;;;;;;;;5218557;28;8868;-66
2022/04/13 01:41:14;;;;;;;;;34.00;34.00;;;;;;;;5234703;28;8807;-65
2022/04/13 01:43:46;;;;;;;;;38.20;36.00;;;;;;;;5213724;28;8790;-66
2022/04/13 01:46:18;;;;;;;;;37.60;37.40;;;;;;;;5247315;28;8777;-66
2022/04/13 01:48:50;;;;;;;;;73.80;60.20;;;;;;;;5247439;28;8810;-67
2022/04/13 01:51:21;;;;;;;;;40.40;37.60;;;;;;;;5232601;28;9544;-67
2022/04/13 01:53:53;;;;;;;;;32.40;28.60;;;;;;;;5251241;28;8787;-66
2022/04/13 01:56:25;;;;;;;;;47.80;43.00;;;;;;;;5251209;28;9557;-66
2022/04/13 01:58:57;;;;;;;;;73.20;57.00;;;;;;;;5250673;28;8830;-66
2022/04/13 02:01:31;;;;;;;;;88.00;67.20;;;;;;;;5251350;28;8775;-66
2022/04/13 02:04:04;;;;;;;;;65.00;53.40;;;;;;;;5251160;28;8775;-66
2022/04/13 02:06:38;;;;;;;;;68.60;54.60;;;;;;;;5217942;28;9595;-66
2022/04/13 02:09:10;;;;;;;;;73.20;59.80;;;;;;;;5218107;28;8779;-66
2022/04/13 02:11:41;;;;;;;;;56.00;47.00;;;;;;;;5217825;28;9438;-66
2022/04/13 02:14:13;;;;;;;;;61.00;51.20;;;;;;;;5245417;28;8924;-66
2022/04/13 02:16:46;;;;;;;;;48.80;43.80;;;;;;;;5210235;28;8820;-65
2022/04/13 02:19:19;;;;;;;;;39.40;38.80;;;;;;;;5245252;28;8827;-65
2022/04/13 02:21:50;;;;;;;;;36.20;35.20;;;;;;;;5231481;28;8806;-65
2022/04/13 02:24:22;;;;;;;;;33.80;33.60;;;;;;;;5231408;28;8779;-64
2022/04/13 02:26:54;;;;;;;;;28.40;28.40;;;;;;;;5214543;28;9552;-64
2022/04/13 02:29:26;;;;;;;;;38.60;38.20;;;;;;;;5231491;28;8794;-64
2022/04/13 02:31:58;;;;;;;;;41.60;39.20;;;;;;;;5244512;28;8819;-63
2022/04/13 02:34:48;;;;;;;;;50.00;42.60;;;;;;;;5232982;28;8783;-64
2022/04/13 02:37:39;;;;;;;;;54.20;46.00;;;;;;;;5226991;28;8785;-66
2022/04/13 02:40:12;;;;;;;;;50.40;45.40;;;;;;;;5210514;28;8809;-66
2022/04/13 02:42:43;;;;;;;;;45.60;40.40;;;;;;;;5215498;28;8795;-66
2022/04/13 02:45:15;;;;;;;;;39.20;38.60;;;;;;;;5230841;28;8817;-66
2022/04/13 02:47:46;;;;;;;;;52.80;45.40;;;;;;;;5230538;28;8847;-66
2022/04/13 02:50:17;;;;;;;;;40.60;38.20;;;;;;;;5244865;28;8799;-66
2022/04/13 02:52:48;;;;;;;;;40.60;38.20;;;;;;;;5228879;28;8787;-66
2022/04/13 02:55:19;;;;;;;;;40.40;38.00;;;;;;;;5228380;28;8791;-66
2022/04/13 02:57:50;;;;;;;;;37.00;36.20;;;;;;;;5225441;28;8784;-66
2022/04/13 03:00:40;;;;;;;;;31.60;30.00;;;;;;;;5230606;28;8793;-66
2022/04/13 03:03:29;;;;;;;;;34.20;34.00;;;;;;;;5216289;28;8780;-65
2022/04/13 03:06:01;;;;;;;;;24.60;23.00;;;;;;;;5230449;28;8761;-65
2022/04/13 03:08:32;;;;;;;;;20.40;20.40;;;;;;;;5230166;28;8903;-65
2022/04/13 03:11:03;;;;;;;;;171.33;129.67;;;;;;;;5206113;28;8794;-65
2022/04/13 03:13:34;;;;;;;;;29.40;26.00;;;;;;;;5269006;28;9329;-65
2022/04/13 03:16:05;;;;;;;;;17.60;16.80;;;;;;;;5234245;28;9184;-66
2022/04/13 03:18:36;;;;;;;;;12.00;12.00;;;;;;;;5234512;28;8762;-65
2022/04/13 03:21:07;;;;;;;;;13.00;13.00;;;;;;;;5268574;28;8786;-65
2022/04/13 03:23:38;;;;;;;;;14.40;14.40;;;;;;;;5250908;28;8763;-67
2022/04/13 03:26:10;;;;;;;;;10.00;10.00;;;;;;;;5217576;28;8790;-67
2022/04/13 03:28:41;;;;;;;;;22.40;22.40;;;;;;;;5250755;28;8822;-66
2022/04/13 03:31:13;;;;;;;;;35.40;32.00;;;;;;;;5250264;28;8795;-66
2022/04/13 03:33:44;;;;;;;;;20.80;20.80;;;;;;;;5250618;28;8777;-66
2022/04/13 03:36:17;;;;;;;;;16.80;15.80;;;;;;;;5217138;28;8803;-66
2022/04/13 03:38:48;;;;;;;;;10.60;10.60;;;;;;;;5250363;28;9590;-67
2022/04/13 03:41:20;;;;;;;;;14.00;14.00;;;;;;;;5250559;28;8844;-67
2022/04/13 03:43:51;;;;;;;;;15.60;15.40;;;;;;;;5266658;28;8798;-67
2022/04/13 03:46:22;;;;;;;;;14.00;14.00;;;;;;;;5233837;28;8783;-67
2022/04/13 03:48:54;;;;;;;;;15.00;15.00;;;;;;;;5266618;28;8832;-67
2022/04/13 03:51:25;;;;;;;;;12.00;11.80;;;;;;;;5233678;28;8785;-67
2022/04/13 03:54:15;;;;;;;;;26.60;25.80;;;;;;;;5249832;28;8900;-67
2022/04/13 03:56:46;;;;;;;;;16.20;16.20;;;;;;;;5268269;28;8794;-66
2022/04/13 03:59:20;;;;;;;;;19.40;19.00;;;;;;;;5216120;28;8839;-65
2022/04/13 04:01:51;;;;;;;;;24.80;23.60;;;;;;;;5250110;28;8805;-65
2022/04/13 04:04:22;;;;;;;;;16.20;15.80;;;;;;;;5249991;28;8777;-65
2022/04/13 04:06:54;;;;;;;;;18.80;17.60;;;;;;;;5250162;28;8823;-65
2022/04/13 04:09:26;;;;;;;;;11.00;11.00;;;;;;;;5233713;28;8834;-65
2022/04/13 04:11:57;;;;;;;;;15.20;14.60;;;;;;;;5233025;28;8814;-65
2022/04/13 04:14:30;;;;;;;;;15.00;13.60;;;;;;;;5249837;28;8790;-65
2022/04/13 04:17:01;;;;;;;;;40.40;35.00;;;;;;;;5249469;28;8787;-66
2022/04/13 04:19:34;;;;;;;;;18.40;18.40;;;;;;;;5250385;28;8821;-65
2022/04/13 04:22:05;;;;;;;;;15.00;15.00;;;;;;;;5250189;28;9261;-64
2022/04/13 04:24:37;;;;;;;;;11.20;11.20;;;;;;;;5267994;28;8786;-64
2022/04/13 04:27:08;;;;;;;;;16.60;16.60;;;;;;;;5245222;28;9583;-64
2022/04/13 04:29:39;;;;;;;;;23.40;23.40;;;;;;;;5228552;28;8778;-64
2022/04/13 04:32:11;;;;;;;;;24.60;22.80;;;;;;;;5224875;28;8787;-65
2022/04/13 04:34:42;;;;;;;;;28.20;27.80;;;;;;;;5249640;28;8799;-68
2022/04/13 04:37:14;;;;;;;;;69.60;57.80;;;;;;;;5249971;28;8778;-68
2022/04/13 04:39:45;;;;;;;;;47.80;41.40;;;;;;;;5219700;28;8820;-67
2022/04/13 04:42:16;;;;;;;;;34.20;34.20;;;;;;;;5264395;28;8806;-68
2022/04/13 04:44:47;;;;;;;;;31.40;31.40;;;;;;;;5249113;28;8798;-66
2022/04/13 04:47:18;;;;;;;;;37.40;35.80;;;;;;;;5232444;28;9574;-67
2022/04/13 04:49:49;;;;;;;;;47.80;42.00;;;;;;;;5232571;28;9441;-67
2022/04/13 04:52:20;;;;;;;;;41.00;38.80;;;;;;;;5248915;28;8789;-67
2022/04/13 04:54:51;;;;;;;;;29.60;29.60;;;;;;;;5249660;28;8763;-61
2022/04/13 04:57:23;;;;;;;;;36.60;36.60;;;;;;;;5267544;28;8831;-62
2022/04/13 04:59:54;;;;;;;;;39.80;37.40;;;;;;;;5215553;28;8916;-62
2022/04/13 05:02:25;;;;;;;;;36.80;35.80;;;;;;;;5246864;28;8833;-63
2022/04/13 05:04:57;;;;;;;;;36.60;35.00;;;;;;;;5247032;28;8795;-63
2022/04/13 05:07:29;;;;;;;;;29.20;29.20;;;;;;;;5213899;28;8846;-63
2022/04/13 05:10:00;;;;;;;;;25.00;24.20;;;;;;;;5265496;28;8828;-63
2022/04/13 05:12:41;;;;;;;;;31.40;29.60;;;;;;;;5247710;28;8912;-63
2022/04/13 05:15:12;;;;;;;;;28.80;26.00;;;;;;;;5247401;28;8794;-63
2022/04/13 05:18:02;;;;;;;;;25.60;25.60;;;;;;;;5247807;28;8759;-63
2022/04/13 05:20:33;;;;;;;;;24.80;24.60;;;;;;;;5247199;28;8940;-63
2022/04/13 05:23:04;;;;;;;;;29.00;29.00;;;;;;;;5246368;28;8806;-64
2022/04/13 05:25:35;;;;;;;;;35.00;33.40;;;;;;;;5230132;28;8871;-64
2022/04/13 05:28:06;;;;;;;;;40.00;36.60;;;;;;;;5244341;28;8797;-63
2022/04/13 05:30:38;;;;;;;;;41.80;35.80;;;;;;;;5213977;28;8766;-63
2022/04/13 05:33:09;;;;;;;;;38.00;36.00;;;;;;;;5264869;28;8771;-63
2022/04/13 05:35:40;;;;;;;;;35.40;33.80;;;;;;;;5264657;28;8901;-64
2022/04/13 05:38:11;;;;;;;;;44.40;39.80;;;;;;;;5230175;28;8800;-64
2022/04/13 05:40:43;;;;;;;;;41.00;39.60;;;;;;;;5263563;28;8808;-63
2022/04/13 05:43:14;;;;;;;;;42.20;36.80;;;;;;;;5256967;28;8810;-63
2022/04/13 05:45:45;;;;;;;;;41.60;37.80;;;;;;;;5230345;28;8778;-64
2022/04/13 05:48:16;;;;;;;;;50.40;43.80;;;;;;;;5230546;28;8850;-64
2022/04/13 05:50:48;;;;;;;;;54.00;46.60;;;;;;;;5248205;28;8790;-64
2022/04/13 05:53:19;;;;;;;;;59.20;49.80;;;;;;;;5234055;28;8786;-64
2022/04/13 05:55:55;;;;;;;;;63.20;53.20;;;;;;;;5234229;28;9651;-64
2022/04/13 05:58:27;;;;;;;;;63.60;52.80;;;;;;;;5250326;28;8826;-64
2022/04/13 06:00:58;;;;;;;;;71.00;56.80;;;;;;;;5233942;28;8841;-64
2022/04/13 06:03:29;;;;;;;;;53.60;45.60;;;;;;;;5212543;28;8843;-63
2022/04/13 06:06:00;;;;;;;;;58.60;49.40;;;;;;;;5230088;28;8934;-63
2022/04/13 06:08:49;;;;;;;;;56.00;47.80;;;;;;;;5247884;28;8830;-64
2022/04/13 06:11:20;;;;;;;;;36.75;34.25;;;;;;;;5251712;28;8911;-63
2022/04/13 06:13:51;;;;;;;;;33.00;32.40;;;;;;;;5268667;28;11498;-64
2022/04/13 06:16:22;;;;;;;;;34.80;34.60;;;;;;;;5248140;28;8805;-63
2022/04/13 06:19:12;;;;;;;;;27.00;27.00;;;;;;;;5251340;28;8890;-63
2022/04/13 06:21:43;;;;;;;;;22.60;22.60;;;;;;;;5235064;28;8766;-63
2022/04/13 06:24:14;;;;;;;;;21.80;21.40;;;;;;;;5252147;28;8813;-64
2022/04/13 06:26:45;;;;;;;;;11.75;11.50;;;;;;;;5234366;28;8795;-64
2022/04/13 06:29:16;;;;;;;;;25.75;25.75;;;;;;;;5218230;28;8936;-64
2022/04/13 06:32:06;;;;;;;;;11.25;11.25;;;;;;;;5230899;28;9914;-64
2022/04/13 06:34:38;;;;;;;;;12.75;12.75;;;;;;;;5230944;28;8799;-64
2022/04/13 06:37:09;;;;;;;;;11.75;11.75;;;;;;;;5249071;28;8776;-64
2022/04/13 06:39:58;;;;;;;;;10.00;10.00;;;;;;;;5231024;28;9519;-64
2022/04/13 06:42:32;;;;;;;;;9.75;9.75;;;;;;;;5266429;28;8932;-64
2022/04/13 06:45:03;;;;;;;;;11.50;11.50;;;;;;;;5267728;28;8822;-64
2022/04/13 06:47:35;;;;;;;;;13.00;12.00;;;;;;;;5230263;28;8804;-64
2022/04/13 06:50:07;;;;;;;;;12.50;12.50;;;;;;;;5218225;28;8825;-63
2022/04/13 06:52:38;;;;;;;;;9.00;9.00;;;;;;;;5269490;28;8755;-63
2022/04/13 06:55:09;;;;;;;;;9.50;9.50;;;;;;;;5234470;28;8781;-65
2022/04/13 06:57:42;;;;;;;;;11.25;11.00;;;;;;;;5251110;28;8777;-66
2022/04/13 07:00:13;;;;;;;;;10.75;10.75;;;;;;;;5250689;28;8896;-66
2022/04/13 07:02:46;;;;;;;;;12.75;12.75;;;;;;;;5250331;28;8818;-66
2022/04/13 07:05:18;;;;;;;;;13.50;13.50;;;;;;;;5217973;28;8791;-66
2022/04/13 07:07:49;;;;;;;;;12.50;12.00;;;;;;;;5251209;28;8762;-66
2022/04/13 07:10:20;;;;;;;;;9.50;9.50;;;;;;;;5267803;28;8786;-66
2022/04/13 07:13:11;;;;;;;;;11.00;10.00;;;;;;;;5269127;28;8778;-66
2022/04/13 07:15:42;;;;;;;;;12.00;12.00;;;;;;;;5234436;28;9500;-66
2022/04/13 07:18:14;;;;;;;;;10.75;10.75;;;;;;;;5233894;28;8823;-66
2022/04/13 07:20:45;;;;;;;;;6.00;6.00;;;;;;;;5250120;28;8810;-66
2022/04/13 07:23:16;;;;;;;;;10.00;10.00;;;;;;;;5250884;28;8805;-66
2022/04/13 07:25:47;;;;;;;;;13.00;13.00;;;;;;;;5250795;28;8835;-66
2022/04/13 07:28:20;;;;;;;;;10.67;10.67;;;;;;;;5250985;28;8779;-66
2022/04/13 07:30:50;;;;;;;;;10.50;9.50;;;;;;;;5250748;28;10223;-66
2022/04/13 07:33:21;;;;;;;;;11.75;11.75;;;;;;;;5234014;28;8786;-66
2022/04/13 07:35:53;;;;;;;;;14.00;14.00;;;;;;;;5250792;28;8782;-66
2022/04/13 07:38:24;;;;;;;;;13.00;12.50;;;;;;;;5234064;28;8759;-66
2022/04/13 07:40:58;;;;;;;;;11.25;11.25;;;;;;;;5233603;28;8798;-66
2022/04/13 07:43:29;;;;;;;;;12.75;12.75;;;;;;;;5234160;28;8778;-66
2022/04/13 07:46:00;;;;;;;;;8.75;8.75;;;;;;;;5250273;28;8773;-66
2022/04/13 07:48:31;;;;;;;;;11.75;11.75;;;;;;;;5250593;28;8878;-66
2022/04/13 07:51:02;;;;;;;;;9.25;9.25;;;;;;;;5250311;28;8798;-66
2022/04/13 07:53:33;;;;;;;;;11.25;11.25;;;;;;;;5249872;28;8778;-66
2022/04/13 07:56:04;;;;;;;;;11.67;11.67;;;;;;;;5233731;28;8758;-66
2022/04/13 07:58:53;;;;;;;;;10.00;10.00;;;;;;;;5267983;28;9509;-66
2022/04/13 08:01:25;;;;;;;;;9.25;9.25;;;;;;;;5250265;28;8781;-66
2022/04/13 08:03:55;;;;;;;;;10.50;10.25;;;;;;;;5233320;28;8794;-66
2022/04/13 08:06:45;;;;;;;;;10.75;10.75;;;;;;;;5235996;28;9536;-66
2022/04/13 08:09:16;;;;;;;;;12.33;10.67;;;;;;;;5249910;28;8778;-66
2022/04/13 08:11:52;;;;;;;;;9.25;9.25;;;;;;;;5233154;28;8802;-66
2022/04/13 08:14:23;;;;;;;;;10.75;10.75;;;;;;;;5232446;28;9485;-66
2022/04/13 08:16:54;;;;;;;;;10.67;10.33;;;;;;;;5249450;28;8778;-66
2022/04/13 08:19:25;;;;;;;;;14.00;14.00;;;;;;;;5267658;28;9278;-66
2022/04/13 08:21:56;;;;;;;;;17.00;17.00;;;;;;;;5249666;28;11407;-66
2022/04/13 08:24:27;;;;;;;;;12.00;12.00;;;;;;;;5249578;28;8826;-66
2022/04/13 08:27:01;;;;;;;;;11.50;11.50;;;;;;;;5216394;28;10412;-66
2022/04/13 08:29:33;;;;;;;;;26.00;26.00;;;;;;;;5233228;28;8863;-66
2022/04/13 08:32:04;;;;;;;;;17.00;17.00;;;;;;;;5249501;28;8774;-66
2022/04/13 08:34:35;;;;;;;;;12.00;12.00;;;;;;;;5233089;28;8812;-66
2022/04/13 08:37:06;;;;;;;;;16.00;15.00;;;;;;;;5249530;28;8767;-66
2022/04/13 08:39:37;;;;;;;;;9.50;9.50;;;;;;;;5232838;28;8820;-66
2022/04/13 08:42:12;;;;;;;;;16.75;16.75;;;;;;;;5267340;28;8786;-66
2022/04/13 08:44:43;;;;;;;;;14.00;14.00;;;;;;;;5249265;28;8771;-66
2022/04/13 08:47:36;;;;;;;;;10.50;10.50;;;;;;;;5235290;28;8902;-66
2022/04/13 08:50:07;;;;;;;;;7.25;7.25;;;;;;;;5216364;28;8783;-66
2022/04/13 08:52:39;;;;;;;;;2.75;2.75;;;;;;;;5249619;28;8785;-66
2022/04/13 08:55:29;;;;;;;;;5.00;5.00;;;;;;;;5218771;28;8801;-66
2022/04/13 08:58:03;;;;;;;;;4.00;4.00;;;;;;;;5249435;28;9489;-67
2022/04/13 09:00:37;;;;;;;;;2.00;2.00;;;;;;;;5249263;28;8855;-66
2022/04/13 09:03:29;;;;;;;;;5.00;5.00;;;;;;;;5232644;28;9558;-66
2022/04/13 09:06:00;;;;;;;;;4.75;4.75;;;;;;;;5249373;28;8782;-66
2022/04/13 09:08:37;;;;;;;;;6.75;6.75;;;;;;;;5215879;28;9493;-65
2022/04/13 09:11:09;;;;;;;;;7.50;7.50;;;;;;;;5249457;28;8831;-65
2022/04/13 09:13:40;;;;;;;;;8.50;8.50;;;;;;;;5248985;28;8769;-65
2022/04/13 09:16:12;;;;;;;;;9.50;9.25;;;;;;;;5232201;28;9493;-67
2022/04/13 09:19:02;;;;;;;;;11.50;10.00;;;;;;;;5266618;28;8779;-65
2022/04/13 09:21:33;;;;;;;;;11.50;11.50;;;;;;;;5232318;28;8863;-65
2022/04/13 09:24:07;;;;;;;;;8.75;8.75;;;;;;;;5249937;28;8807;-65
2022/04/13 09:26:38;;;;;;;;;10.25;10.25;;;;;;;;5252955;28;8783;-66
2022/04/13 09:29:09;;;;;;;;;8.00;8.00;;;;;;;;5253178;28;8813;-66
2022/04/13 09:31:41;;;;;;;;;9.25;9.25;;;;;;;;5219595;28;8790;-66
2022/04/13 09:34:12;;;;;;;;;8.00;8.00;;;;;;;;5253052;28;8881;-66
2022/04/13 09:36:44;;;;;;;;;8.25;8.25;;;;;;;;5253042;28;8775;-66
2022/04/13 09:39:15;;;;;;;;;9.25;9.00;;;;;;;;5252998;28;8826;-66
2022/04/13 09:41:46;;;;;;;;;8.75;8.75;;;;;;;;5236139;28;8799;-66
2022/04/13 09:44:18;;;;;;;;;9.75;9.75;;;;;;;;5270364;28;8794;-65
2022/04/13 09:46:49;;;;;;;;;11.25;10.50;;;;;;;;5252007;28;8919;-65
2022/04/13 09:49:22;;;;;;;;;9.25;8.75;;;;;;;;5250398;28;8879;-66
2022/04/13 09:52:11;;;;;;;;;9.00;8.50;;;;;;;;5236522;28;9535;-65
2022/04/13 09:54:46;;;;;;;;;9.00;9.00;;;;;;;;5268788;28;8878;-65
2022/04/13 09:57:35;;;;;;;;;6.25;6.00;;;;;;;;5250727;28;8786;-66
2022/04/13 10:00:06;;;;;;;;;10.00;10.00;;;;;;;;5233381;28;8850;-66
2022/04/13 10:02:44;;;;;;;;;12.00;12.00;;;;;;;;5234816;28;9509;-65
2022/04/13 10:05:18;;;;;;;;;11.25;11.25;;;;;;;;5217418;28;8787;-65
2022/04/13 10:08:02;;;;;;;;;8.75;8.50;;;;;;;;5249329;28;8798;-66
2022/04/13 10:10:59;;;;;;;;;6.50;6.50;;;;;;;;5236388;28;8914;-67
2022/04/13 10:13:48;;;;;;;;;11.25;11.00;;;;;;;;5266759;28;8833;-67
2022/04/13 10:16:20;;;;;;;;;5.25;5.25;;;;;;;;5230180;28;9596;-66
2022/04/13 10:18:56;;;;;;;;;6.50;6.50;;;;;;;;5230993;28;8807;-66
2022/04/13 10:21:33;;;;;;;;;7.25;7.25;;;;;;;;5263540;28;8811;-66
2022/04/13 10:24:04;;;;;;;;;7.75;7.00;;;;;;;;5270224;28;8770;-66
2022/04/13 10:26:35;;;;;;;;;7.50;7.50;;;;;;;;5235229;28;8778;-66
2022/04/13 10:29:26;;;;;;;;;10.50;10.50;;;;;;;;5237708;28;8797;-66
2022/04/13 10:32:02;;;;;;;;;7.50;7.50;;;;;;;;5251849;28;8806;-67
2022/04/13 10:34:34;;;;;;;;;8.75;8.75;;;;;;;;5252346;28;8778;-66
2022/04/13 10:37:06;;;;;;;;;12.75;12.75;;;;;;;;5250016;28;8814;-66
2022/04/13 10:39:37;;;;;;;;;9.00;9.00;;;;;;;;5233874;28;8850;-65
2022/04/13 10:42:09;;;;;;;;;7.00;7.00;;;;;;;;5269322;28;8790;-67
2022/04/13 10:44:52;;;;;;;;;7.00;7.00;;;;;;;;5250500;28;8909;-65
2022/04/13 10:47:32;;;;;;;;;8.50;8.50;;;;;;;;5250601;28;8803;-65
2022/04/13 10:50:04;;;;;;;;;7.50;6.75;;;;;;;;5237366;28;9517;-64
2022/04/13 10:52:58;;;;;;;;;7.50;7.50;;;;;;;;5243919;28;9539;-65
2022/04/13 10:55:33;;;;;;;;;10.25;10.25;;;;;;;;5230651;28;8785;-64
2022/04/13 10:58:14;;;;;;;;;6.00;6.00;;;;;;;;5256627;28;8790;-65
2022/04/13 11:01:04;;;;;;;;;7.75;7.25;;;;;;;;5251122;28;8879;-64
2022/04/13 11:03:38;;;;;;;;;6.00;6.00;;;;;;;;5218201;28;8767;-64
2022/04/13 11:06:28;;;;;;;;;10.25;10.25;;;;;;;;5244315;28;8843;-64
2022/04/13 11:09:04;;;;;;;;;12.00;12.00;;;;;;;;5247108;28;8768;-66
2022/04/13 11:11:36;;;;;;;;;9.50;9.50;;;;;;;;5230439;28;8788;-64
2022/04/13 11:14:20;;;;;;;;;5.25;5.25;;;;;;;;5213949;28;9537;-64
2022/04/13 11:16:52;;;;;;;;;9.00;9.00;;;;;;;;5248288;28;9535;-64
2022/04/13 11:19:23;;;;;;;;;8.00;7.50;;;;;;;;5247918;28;9641;-65
2022/04/13 11:21:54;;;;;;;;;6.00;6.00;;;;;;;;5250463;28;8802;-65
2022/04/13 11:24:33;;;;;;;;;7.33;7.33;;;;;;;;5233859;28;8793;-64
2022/04/13 11:27:04;;;;;;;;;7.75;7.75;;;;;;;;5217836;28;11348;-64
2022/04/13 11:29:39;;;;;;;;;9.50;9.50;;;;;;;;5268627;28;8790;-64
2022/04/13 11:32:11;;;;;;;;;8.00;8.00;;;;;;;;5233347;28;8921;-64
2022/04/13 11:35:01;;;;;;;;;7.25;7.25;;;;;;;;5268834;28;8786;-64
2022/04/13 11:37:33;;;;;;;;;6.50;6.50;;;;;;;;5250779;28;9580;-64
2022/04/13 11:40:10;;;;;;;;;9.50;9.50;;;;;;;;5250519;28;8794;-64
2022/04/13 11:42:43;;;;;;;;;11.50;11.25;;;;;;;;5267922;28;8802;-64
2022/04/13 11:45:17;;;;;;;;;4.25;4.25;;;;;;;;5234531;28;8778;-64
2022/04/13 11:47:51;;;;;;;;;9.75;9.75;;;;;;;;5250062;28;8806;-64
2022/04/13 11:50:33;;;;;;;;;9.50;9.50;;;;;;;;5250392;28;8786;-64
2022/04/13 11:53:06;;;;;;;;;6.50;6.50;;;;;;;;5233649;28;8774;-64
2022/04/13 11:55:37;;;;;;;;;6.75;6.75;;;;;;;;5250496;28;9476;-64
2022/04/13 11:58:08;;;;;;;;;11.75;11.75;;;;;;;;5249487;28;8750;-65
2022/04/13 12:00:41;;;;;;;;;13.33;13.33;;;;;;;;5268023;28;9582;-64
2022/04/13 12:03:35;;;;;;;;;13.25;13.25;;;;;;;;5249739;28;8783;-64
2022/04/13 12:06:26;;;;;;;;;9.00;9.00;;;;;;;;5236290;28;8951;-64
2022/04/13 12:09:01;;;;;;;;;10.75;10.50;;;;;;;;5249878;28;9187;-64
2022/04/13 12:11:41;;;;;;;;;7.75;7.75;;;;;;;;5250099;28;8782;-64
2022/04/13 12:14:38;;;;;;;;;12.50;12.50;;;;;;;;5250161;28;8875;-64
2022/04/13 12:17:09;;;;;;;;;20.00;20.00;;;;;;;;5249256;28;8797;-64
2022/04/13 12:19:58;;;;;;;;;15.75;15.75;;;;;;;;5249686;28;8790;-64
2022/04/13 12:22:33;;;;;;;;;11.50;11.50;;;;;;;;5248956;28;8782;-64
2022/04/13 12:25:22;;;;;;;;;15.50;14.00;;;;;;;;5267732;28;8795;-64
2022/04/13 12:28:13;;;;;;;;;9.00;9.00;;;;;;;;5249136;28;9563;-65
2022/04/13 12:30:53;;;;;;;;;6.25;6.25;;;;;;;;5249295;28;9445;-64
2022/04/13 12:33:25;;;;;;;;;5.00;5.00;;;;;;;;5249730;28;9532;-64
2022/04/13 12:36:00;;;;;;;;;15.50;15.00;;;;;;;;5216266;28;8783;-64
2022/04/13 12:38:37;;;;;;;;;11.50;11.50;;;;;;;;5232657;28;8791;-64
2022/04/13 12:41:12;;;;;;;;;9.00;9.00;;;;;;;;5248992;28;8819;-64
2022/04/13 12:43:44;;;;;;;;;10.25;10.25;;;;;;;;5265598;28;8791;-65
2022/04/13 12:46:19;;;;;;;;;6.75;6.75;;;;;;;;5249422;28;8774;-64
2022/04/13 12:49:21;;;;;;;;;7.50;7.50;;;;;;;;5249588;28;8791;-64
2022/04/13 12:51:55;;;;;;;;;8.25;8.25;;;;;;;;5233309;28;8770;-64
2022/04/13 12:54:26;;;;;;;;;9.00;9.00;;;;;;;;5232501;28;8801;-64
2022/04/13 12:57:15;;;;;;;;;6.00;6.00;;;;;;;;5252121;28;8889;-64
2022/04/13 12:59:46;;;;;;;;;6.00;6.00;;;;;;;;5243803;28;8827;-64
2022/04/13 13:02:20;;;;;;;;;3.67;3.67;;;;;;;;5244916;28;8783;-64
2022/04/13 13:04:52;;;;;;;;;7.00;7.00;;;;;;;;5246602;28;10009;-64
2022/04/13 13:07:33;;;;;;;;;6.75;6.75;;;;;;;;5243978;28;8901;-64
2022/04/13 13:10:04;;;;;;;;;6.75;6.75;;;;;;;;5227951;28;8806;-64
2022/04/13 13:12:35;;;;;;;;;10.75;10.75;;;;;;;;5228050;28;8776;-65
2022/04/13 13:15:06;;;;;;;;;13.00;13.00;;;;;;;;5244955;28;8784;-64
2022/04/13 13:17:42;;;;;;;;;9.50;9.50;;;;;;;;5244570;28;8847;-64
2022/04/13 13:20:15;;;;;;;;;10.00;9.75;;;;;;;;5223373;28;8829;-64
2022/04/13 13:22:47;;;;;;;;;8.00;8.00;;;;;;;;5208273;28;8790;-64
2022/04/13 13:25:41;;;;;;;;;10.00;10.00;;;;;;;;5246057;28;8851;-65
2022/04/13 13:28:12;;;;;;;;;8.75;8.75;;;;;;;;5240457;28;8789;-65
2022/04/13 13:30:45;;;;;;;;;8.50;8.00;;;;;;;;5224287;28;8832;-65
2022/04/13 13:33:18;;;;;;;;;8.75;7.00;;;;;;;;5207502;28;8806;-65
2022/04/13 13:35:50;;;;;;;;;11.75;11.25;;;;;;;;5244423;28;8786;-65
2022/04/13 13:38:22;;;;;;;;;13.75;13.75;;;;;;;;5228109;28;8900;-66
2022/04/13 13:40:54;;;;;;;;;10.00;10.00;;;;;;;;5244185;28;8811;-65
2022/04/13 13:43:28;;;;;;;;;11.50;11.50;;;;;;;;5245439;28;8778;-65
2022/04/13 13:46:19;;;;;;;;;9.50;9.50;;;;;;;;5245058;28;8813;-65
2022/04/13 13:48:50;;;;;;;;;4.25;4.25;;;;;;;;5244362;28;8807;-65
2022/04/13 13:51:21;;;;;;;;;6.50;6.50;;;;;;;;5244441;28;8852;-65
2022/04/13 13:54:10;;;;;;;;;7.25;6.50;;;;;;;;5237771;28;8944;-65
2022/04/13 13:56:41;;;;;;;;;5.67;5.67;;;;;;;;5224049;28;8908;-65
2022/04/13 13:59:12;;;;;;;;;7.00;7.00;;;;;;;;5233715;28;9612;-65
2022/04/13 14:01:43;;;;;;;;;11.00;11.00;;;;;;;;5227753;28;8818;-65
2022/04/13 14:04:14;;;;;;;;;12.33;12.33;;;;;;;;5243938;28;8773;-65
2022/04/13 14:06:45;;;;;;;;;12.50;12.00;;;;;;;;5216653;28;9524;-65
2022/04/13 14:09:16;;;;;;;;;49.20;41.00;;;;;;;;5231403;28;8851;-65
2022/04/13 14:11:47;;;;;;;;;7.50;7.00;;;;;;;;5267800;28;8774;-65
2022/04/13 14:14:18;;;;;;;;;4.00;4.00;;;;;;;;5233329;28;8813;-65
2022/04/13 14:16:50;;;;;;;;;8.00;8.00;;;;;;;;5247811;28;9525;-65
2022/04/13 14:19:21;;;;;;;;;16.25;16.25;;;;;;;;5235684;28;8791;-65
2022/04/13 14:21:52;;;;;;;;;19.00;18.50;;;;;;;;5234331;28;8786;-65
2022/04/13 14:24:23;;;;;;;;;12.00;12.00;;;;;;;;5251698;28;8834;-65
2022/04/13 14:26:54;;;;;;;;;12.33;12.33;;;;;;;;5251536;28;8776;-65
2022/04/13 14:29:25;;;;;;;;;13.33;13.33;;;;;;;;5246754;28;11494;-65
2022/04/13 14:31:56;;;;;;;;;10.67;10.67;;;;;;;;5238050;28;11456;-66
2022/04/13 14:34:27;;;;;;;;;11.00;11.00;;;;;;;;5250607;28;10562;-65
2022/04/13 14:36:57;;;;;;;;;13.33;13.33;;;;;;;;5249596;28;8939;-65
2022/04/13 14:39:28;;;;;;;;;11.67;11.67;;;;;;;;5265881;28;10505;-66
2022/04/13 14:41:59;;;;;;;;;12.50;12.50;;;;;;;;5249622;28;11450;-65
2022/04/13 14:44:30;;;;;;;;;21.00;21.00;;;;;;;;5238151;28;8811;-66
2022/04/13 14:47:01;;;;;;;;;23.00;23.00;;;;;;;;5249119;28;8814;-67
2022/04/13 14:49:33;;;;;;;;;31.75;30.50;;;;;;;;5232878;28;8913;-66
2022/04/13 14:52:04;;;;;;;;;30.00;28.75;;;;;;;;5249499;28;8984;-66
2022/04/13 14:54:35;;;;;;;;;40.60;35.40;;;;;;;;5266267;28;8924;-66
2022/04/13 14:57:07;;;;;;;;;25.67;25.67;;;;;;;;5249556;28;9701;-66
2022/04/13 14:59:38;;;;;;;;;23.00;22.25;;;;;;;;5249056;28;11497;-66
2022/04/13 15:02:09;;;;;;;;;18.00;18.00;;;;;;;;5248966;28;8794;-65
2022/04/13 15:04:40;;;;;;;;;15.00;14.33;;;;;;;;5248989;28;8924;-66
2022/04/13 15:07:11;;;;;;;;;14.50;14.00;;;;;;;;5266939;28;11434;-66
2022/04/13 15:10:00;;;;;;;;;22.50;22.25;;;;;;;;5266506;28;8801;-66
2022/04/13 15:12:31;;;;;;;;;22.50;21.50;;;;;;;;5215940;28;8786;-66
2022/04/13 15:15:06;;;;;;;;;19.00;18.75;;;;;;;;5248720;28;8767;-66
2022/04/13 15:17:37;;;;;;;;;21.50;21.25;;;;;;;;5249032;28;8778;-66